Ardonia, NY

6:18 PM EST on December 25, 2014 (GMT -0500)
Orange County | Change Station
CLOSE
Current Station
Airport
Location: Montgomery,
Elevation: 364 ft
Nearby Weather Stations

Elev 364 ft 41.51 °N, 74.26 °W | Updated 24 minutes ago

Overcast
Overcast
46 °F
Feels Like 40 °F
N
15
Wind Variable Wind from WNW

Today
High -- | Low -- °F
--% Chance of Precip.
Yesterday
High -- | Low -- °F
Precip. -- in
7:21 AM 4:31 PM
Waxing Crescent, 20% visible
Pressure 29.94 in
Visibility 10.0 miles
Clouds Few 5000 ft
Windchill 40 °F
Dew Point 29 °F
Humidity 51%
Rainfall 0.02 in
Snow Depth Not available.
UV 0 out of 12
Pollen .10 out of 12
Air Quality Not available.
Flu Activity Not available.
METAR KMGJ 252254Z AUTO 29013KT 10SM FEW050 08/M02 A2994 RMK AO2 SLP138 T00781017 TSNO

More Conditions Fewer Conditions

Pressure 29.94 in
Visibility 10.0 miles
Clouds Few 5000 ft
Windchill 40 °F
Dew Point 29 °F
Humidity 51%
Rainfall 0.02 in
Snow Depth Not available.
UV 0 out of 12
Pollen .10 out of 12
Air Quality Not available.
Flu Activity Not available.
METAR KMGJ 252254Z AUTO 29013KT 10SM FEW050 08/M02 A2994 RMK AO2 SLP138 T00781017 TSNO

More Conditions Fewer Conditions

10-Day Weather Forecast

Almanac

Astronomy

Dec. 25, 2014 Rise Set
Actual Time
Civil Twilight
Nautical Twilight
Astronomical Twilight
Moon
Length of Visible Light
Length of Day
Tomorrow will be .
, % of the Moon is Illuminated

Today's Extremes

State Highs State Lows

Community

WunderPhotos

Upload Photos

1,780,440 photos uploaded!

WunderBlogs® & News

Nearby

Air Quality

  Air Quality AQ Index Pollutant
Not available.

Snow Depth

Station Depth Elevation

Earthquake Activity

City Distance Mag. Time & Date
Minimum magnitude displayed is 2.5.

Coastal Water Temperatures

Place Temperature

Nearby Weather Stations